createdAt,value
2022-12-23T00:01:32.659Z,98255.15
2022-12-23T00:04:03.579Z,98259.83
2022-12-23T00:06:34.319Z,98267.20
2022-12-23T00:09:05.259Z,98268.35
2022-12-23T00:11:35.940Z,98266.51
2022-12-23T00:14:24.556Z,98263.89
2022-12-23T00:16:55.481Z,98267.33
2022-12-23T00:19:26.350Z,98264.54
2022-12-23T00:21:57.062Z,98262.06
2022-12-23T00:24:27.906Z,98262.76
2022-12-23T00:26:58.539Z,98261.48
2022-12-23T00:29:29.283Z,98256.84
2022-12-23T00:32:00.026Z,98251.33
2022-12-23T00:34:30.792Z,98246.23
2022-12-23T00:37:01.457Z,98236.27
2022-12-23T00:39:54.625Z,98229.24
2022-12-23T00:42:43.588Z,98232.94
2022-12-23T00:45:17.077Z,98233.48
2022-12-23T00:48:06.785Z,98233.59
2022-12-23T00:50:39.446Z,98232.21
2022-12-23T00:53:10.432Z,98232.04
2022-12-23T00:55:41.123Z,98228.31
2022-12-23T00:58:11.841Z,98230.50
2022-12-23T01:01:00.731Z,98231.10
2022-12-23T01:03:49.509Z,98229.08
2022-12-23T01:06:20.554Z,98236.07
2022-12-23T01:08:51.159Z,98238.59
2022-12-23T01:11:21.837Z,98240.16
2022-12-23T01:13:52.541Z,98241.63
2022-12-23T01:16:23.317Z,98240.33
2022-12-23T01:18:54.048Z,98239.41
2022-12-23T01:21:24.706Z,98238.27
2022-12-23T01:23:55.460Z,98236.27
2022-12-23T01:26:26.274Z,98232.75
2022-12-23T01:28:58.147Z,98227.11
2022-12-23T01:31:30.193Z,98225.98
2022-12-23T01:34:00.980Z,98226.26
2022-12-23T01:36:32.136Z,98221.13
2022-12-23T01:39:02.942Z,98213.52
2022-12-23T01:41:52.348Z,98212.16
2022-12-23T01:44:55.034Z,98209.56
2022-12-23T01:47:35.320Z,98210.95
2022-12-23T01:50:10.820Z,98208.90
2022-12-23T01:52:47.152Z,98207.21
2022-12-23T01:55:24.533Z,98201.19
2022-12-23T01:57:57.823Z,98199.42
2022-12-23T02:00:46.250Z,98196.14
2022-12-23T02:03:34.588Z,98191.64
2022-12-23T02:06:20.095Z,98192.85
2022-12-23T02:09:08.485Z,98195.50
2022-12-23T02:11:54.715Z,98188.45
2022-12-23T02:14:57.992Z,98193.20
2022-12-23T02:17:36.728Z,98188.86
2022-12-23T02:20:37.789Z,98182.58
2022-12-23T02:23:27.556Z,98185.95
2022-12-23T02:26:19.110Z,98186.23
2022-12-23T02:29:24.127Z,98185.70
2022-12-23T02:32:02.776Z,98186.30
2022-12-23T02:34:42.028Z,98187.07
2022-12-23T02:37:19.817Z,98183.13
2022-12-23T02:39:57.099Z,98184.70
2022-12-23T02:42:34.553Z,98175.95
2022-12-23T02:45:11.993Z,98176.05
2022-12-23T02:47:47.788Z,98176.72
2022-12-23T02:50:24.328Z,98172.94
2022-12-23T02:52:58.395Z,98170.49
2022-12-23T02:55:34.098Z,98170.48
2022-12-23T02:58:11.643Z,98167.94
2022-12-23T03:00:44.616Z,98168.58
2022-12-23T03:03:17.227Z,98164.70
2022-12-23T03:05:50.367Z,98159.77
2022-12-23T03:08:25.659Z,98158.58
2022-12-23T03:11:09.708Z,98150.09
2022-12-23T03:14:04.684Z,98148.11
2022-12-23T03:16:44.002Z,98144.86
2022-12-23T03:19:22.617Z,98144.67
2022-12-23T03:22:01.685Z,98144.02
2022-12-23T03:24:40.680Z,98144.45
2022-12-23T03:27:17.454Z,98149.77
2022-12-23T03:29:56.001Z,98151.23
2022-12-23T03:32:29.569Z,98155.95
2022-12-23T03:35:03.291Z,98155.64
2022-12-23T03:37:34.035Z,98153.58
2022-12-23T03:40:11.997Z,98156.13
2022-12-23T03:42:46.591Z,98152.95
2022-12-23T03:45:39.903Z,98151.48
2022-12-23T03:48:17.509Z,98144.04
2022-12-23T03:50:50.904Z,98144.64
2022-12-23T03:53:28.902Z,98143.30
2022-12-23T03:56:05.045Z,98141.95
2022-12-23T03:58:42.879Z,98139.59
2022-12-23T04:01:20.076Z,98143.73
2022-12-23T04:04:01.336Z,98140.70
2022-12-23T04:06:43.552Z,98142.06
2022-12-23T04:09:21.522Z,98140.48
2022-12-23T04:11:53.602Z,98136.64
2022-12-23T04:14:25.356Z,98128.69
2022-12-23T04:16:59.353Z,98135.18
2022-12-23T04:19:30.220Z,98133.08
2022-12-23T04:22:01.091Z,98129.60
2022-12-23T04:24:31.979Z,98128.77
2022-12-23T04:27:02.651Z,98127.94
2022-12-23T04:29:35.964Z,98129.16
2022-12-23T04:32:07.245Z,98131.27
2022-12-23T04:34:38.215Z,98129.27
2022-12-23T04:37:09.117Z,98124.70
2022-12-23T04:39:40.066Z,98126.95
2022-12-23T04:42:11.022Z,98127.29
2022-12-23T04:44:41.612Z,98122.04
2022-12-23T04:47:12.327Z,98123.73
2022-12-23T04:49:42.931Z,98125.59
2022-12-23T04:52:13.658Z,98127.23
2022-12-23T04:54:46.451Z,98131.05
2022-12-23T04:57:17.873Z,98131.41
2022-12-23T04:59:48.458Z,98132.65
2022-12-23T05:02:19.241Z,98129.02
2022-12-23T05:04:50.262Z,98127.29
2022-12-23T05:07:21.103Z,98120.61
2022-12-23T05:09:51.771Z,98120.35
2022-12-23T05:12:22.497Z,98116.61
2022-12-23T05:14:53.298Z,98114.28
2022-12-23T05:17:24.248Z,98116.56
2022-12-23T05:19:54.910Z,98111.52
2022-12-23T05:22:25.636Z,98111.75
2022-12-23T05:24:56.360Z,98114.55
2022-12-23T05:27:27.010Z,98110.48
2022-12-23T05:29:57.734Z,98113.20
2022-12-23T05:32:28.543Z,98115.49
2022-12-23T05:34:59.308Z,98116.09
2022-12-23T05:37:30.051Z,98121.04
2022-12-23T05:40:00.695Z,98109.75
2022-12-23T05:42:31.633Z,98120.97
2022-12-23T05:45:02.306Z,98121.47
2022-12-23T05:47:33.179Z,98120.94
2022-12-23T05:50:04.151Z,98119.59
2022-12-23T05:52:35.350Z,98121.25
2022-12-23T05:55:06.695Z,98120.44
2022-12-23T05:57:37.376Z,98126.08
2022-12-23T06:00:10.660Z,98128.20
2022-12-23T06:02:41.531Z,98128.55
2022-12-23T06:05:13.604Z,98129.25
2022-12-23T06:07:44.681Z,98131.43
2022-12-23T06:10:15.459Z,98130.03
2022-12-23T06:12:46.156Z,98132.23
2022-12-23T06:15:17.474Z,98131.28
2022-12-23T06:17:48.554Z,98136.10
2022-12-23T06:20:20.917Z,98136.92
2022-12-23T06:22:52.185Z,98134.25
2022-12-23T06:25:23.171Z,98134.45
2022-12-23T06:27:53.821Z,98137.37
2022-12-23T06:30:24.524Z,98136.30
2022-12-23T06:32:55.286Z,98137.82
2022-12-23T06:35:26.150Z,98139.94
2022-12-23T06:37:56.822Z,98134.41
2022-12-23T06:40:29.268Z,98134.30
2022-12-23T06:43:00.181Z,98136.19
2022-12-23T06:45:31.290Z,98134.91
2022-12-23T06:48:02.069Z,98132.08
2022-12-23T06:50:33.014Z,98130.59
2022-12-23T06:53:03.707Z,98131.45
2022-12-23T06:55:34.415Z,98137.41
2022-12-23T06:58:05.350Z,98139.30
2022-12-23T07:00:36.178Z,98140.70
2022-12-23T07:03:07.068Z,98139.85
2022-12-23T07:05:38.261Z,98141.91
2022-12-23T07:08:09.564Z,98143.97
2022-12-23T07:10:40.353Z,98147.02
2022-12-23T07:13:11.079Z,98151.65
2022-12-23T07:15:42.432Z,98146.78
2022-12-23T07:18:13.211Z,98157.68
2022-12-23T07:20:43.952Z,98163.64
2022-12-23T07:23:14.853Z,98161.95
2022-12-23T07:25:45.829Z,98166.62
2022-12-23T07:28:16.625Z,98166.19
2022-12-23T07:30:47.644Z,98163.17
2022-12-23T07:33:18.705Z,98171.11
2022-12-23T07:35:49.530Z,98170.58
2022-12-23T07:38:20.308Z,98172.59
2022-12-23T07:40:52.987Z,98171.09
2022-12-23T07:43:23.734Z,98166.81
2022-12-23T07:45:59.813Z,98162.77
2022-12-23T07:48:31.388Z,98164.48
2022-12-23T07:51:04.901Z,98161.39
2022-12-23T07:53:35.675Z,98163.36
2022-12-23T07:56:07.559Z,98153.86
2022-12-23T07:58:38.183Z,98155.07
2022-12-23T08:01:09.342Z,98147.09
2022-12-23T08:03:40.217Z,98146.69
2022-12-23T08:06:13.513Z,98148.73
2022-12-23T08:08:46.375Z,98147.80
2022-12-23T08:11:18.160Z,98150.71
2022-12-23T08:13:49.632Z,98147.85
2022-12-23T08:16:20.551Z,98143.14
2022-12-23T08:18:51.446Z,98146.27
2022-12-23T08:21:22.450Z,98137.98
2022-12-23T08:23:54.250Z,98139.81
2022-12-23T08:26:26.216Z,98136.44
2022-12-23T08:28:57.229Z,98135.79
2022-12-23T08:31:32.043Z,98143.28
2022-12-23T08:34:03.606Z,98145.70
2022-12-23T08:36:36.181Z,98146.96
2022-12-23T08:39:11.369Z,98143.02
2022-12-23T08:41:46.197Z,98142.99
2022-12-23T08:44:17.550Z,98141.98
2022-12-23T08:46:48.577Z,98141.95
2022-12-23T08:49:19.395Z,98137.75
2022-12-23T08:51:50.798Z,98134.34
2022-12-23T08:54:22.380Z,98132.59
2022-12-23T08:56:53.097Z,98134.15
2022-12-23T08:59:24.032Z,98137.19
2022-12-23T09:01:54.835Z,98133.15
2022-12-23T09:04:25.658Z,98138.20
2022-12-23T09:06:56.364Z,98136.29
2022-12-23T09:09:27.127Z,98131.37
2022-12-23T09:11:57.929Z,98134.17
2022-12-23T09:14:29.067Z,98133.91
2022-12-23T09:16:59.841Z,98132.20
2022-12-23T09:19:30.550Z,98124.71
2022-12-23T09:22:01.432Z,98126.69
2022-12-23T09:24:32.655Z,98124.50
2022-12-23T09:27:03.473Z,98126.77
2022-12-23T09:29:34.181Z,98125.34
2022-12-23T09:32:04.951Z,98125.15
2022-12-23T09:34:36.100Z,98126.20
2022-12-23T09:37:06.936Z,98129.53
2022-12-23T09:39:37.780Z,98127.69
2022-12-23T09:42:44.966Z,98132.22
2022-12-23T09:45:26.938Z,98136.19
2022-12-23T09:47:58.751Z,98140.69
2022-12-23T09:50:33.619Z,98141.70
2022-12-23T09:53:07.815Z,98143.10
2022-12-23T09:55:47.727Z,98144.77
2022-12-23T09:58:28.565Z,98152.50
2022-12-23T10:01:12.068Z,98158.81
2022-12-23T10:04:17.042Z,98153.95
2022-12-23T10:06:56.256Z,98163.23
2022-12-23T10:09:31.304Z,98162.09
2022-12-23T10:12:07.228Z,98159.45
2022-12-23T10:14:39.217Z,98160.16
2022-12-23T10:17:15.832Z,98160.65
2022-12-23T10:19:49.575Z,98157.55
2022-12-23T10:22:22.057Z,98159.06
2022-12-23T10:24:55.257Z,98163.02
2022-12-23T10:27:32.579Z,98164.77
2022-12-23T10:30:33.795Z,98160.85
2022-12-23T10:33:09.936Z,98155.16
2022-12-23T10:35:50.015Z,98161.55
2022-12-23T10:38:34.942Z,98167.27
2022-12-23T10:41:13.390Z,98166.37
2022-12-23T10:44:01.694Z,98167.77
2022-12-23T10:46:43.281Z,98168.80
2022-12-23T10:49:24.451Z,98162.56
2022-12-23T10:51:59.136Z,98158.20
2022-12-23T10:54:34.948Z,98163.77
2022-12-23T10:57:08.376Z,98167.57
2022-12-23T10:59:39.600Z,98170.88
2022-12-23T11:02:31.651Z,98171.91
2022-12-23T11:05:02.765Z,98175.25
2022-12-23T11:07:44.550Z,98172.57
2022-12-23T11:10:22.171Z,98169.73
2022-12-23T11:12:54.724Z,98173.41
2022-12-23T11:15:32.225Z,98163.34
2022-12-23T11:18:17.649Z,98168.63
2022-12-23T11:21:04.587Z,98168.82
2022-12-23T11:23:37.230Z,98165.02
2022-12-23T11:26:11.697Z,98163.44
2022-12-23T11:28:50.782Z,98156.29
2022-12-23T11:31:32.614Z,98160.77
2022-12-23T11:34:05.458Z,98162.35
2022-12-23T11:36:37.274Z,98156.23
2022-12-23T11:39:17.890Z,98152.95
2022-12-23T11:41:51.259Z,98152.26
2022-12-23T11:44:27.635Z,98151.14
2022-12-23T11:46:58.748Z,98154.20
2022-12-23T11:49:32.513Z,98151.91
2022-12-23T11:52:12.906Z,98152.67
2022-12-23T11:54:54.407Z,98146.55
2022-12-23T11:57:39.984Z,98148.09
2022-12-23T12:00:22.851Z,98150.84
2022-12-23T12:02:56.461Z,98157.05
2022-12-23T12:05:30.188Z,98157.60
2022-12-23T12:08:06.105Z,98165.77
2022-12-23T12:10:39.068Z,98169.85
2022-12-23T12:13:23.225Z,98176.18
2022-12-23T12:16:04.491Z,98174.98
2022-12-23T12:18:36.262Z,98173.96
2022-12-23T12:21:12.388Z,98179.88
2022-12-23T12:23:48.916Z,98191.00
2022-12-23T12:26:26.476Z,98188.05
2022-12-23T12:29:04.108Z,98187.27
2022-12-23T12:31:40.831Z,98192.72
2022-12-23T12:34:26.889Z,98187.70
2022-12-23T12:37:02.063Z,98191.66
2022-12-23T12:39:37.163Z,98195.05
2022-12-23T12:42:15.994Z,98199.55
2022-12-23T12:44:59.619Z,98193.70
2022-12-23T12:47:53.716Z,98189.83
2022-12-23T12:50:30.339Z,98188.39
2022-12-23T12:53:05.157Z,98187.16
2022-12-23T12:55:42.288Z,98190.05
2022-12-23T12:58:19.885Z,98191.94
2022-12-23T13:01:00.557Z,98192.05
2022-12-23T13:03:56.625Z,98193.11
2022-12-23T13:06:37.441Z,98183.06
2022-12-23T13:09:17.217Z,98177.42
2022-12-23T13:11:49.571Z,98176.94
2022-12-23T13:14:34.852Z,98182.11
2022-12-23T13:17:15.554Z,98190.88
2022-12-23T13:19:52.093Z,98196.13
2022-12-23T13:22:29.351Z,98194.23
2022-12-23T13:25:05.178Z,98193.17
2022-12-23T13:27:40.036Z,98192.19
2022-12-23T13:30:15.360Z,98193.77
2022-12-23T13:33:05.335Z,98196.33
2022-12-23T13:35:44.609Z,98193.58
2022-12-23T13:38:29.440Z,98187.61
2022-12-23T13:41:09.267Z,98190.79
2022-12-23T13:43:48.421Z,98199.19
2022-12-23T13:46:39.215Z,98195.64
2022-12-23T13:49:18.186Z,98190.63
2022-12-23T13:51:55.633Z,98191.36
2022-12-23T13:54:37.107Z,98190.44
2022-12-23T13:57:20.837Z,98183.02
2022-12-23T14:00:05.996Z,98179.95
2022-12-23T14:02:53.231Z,98180.61
2022-12-23T14:05:36.881Z,98181.52
2022-12-23T14:08:21.244Z,98182.05
2022-12-23T14:10:57.526Z,98182.99
2022-12-23T14:13:31.478Z,98187.19
2022-12-23T14:16:26.284Z,98185.56
2022-12-23T14:19:23.496Z,98184.27
2022-12-23T14:22:07.543Z,98190.17
2022-12-23T14:25:21.297Z,98182.77
2022-12-23T14:27:59.791Z,98183.56
2022-12-23T14:30:37.394Z,98179.46
2022-12-23T14:33:29.308Z,98177.83
2022-12-23T14:36:14.666Z,98175.44
2022-12-23T14:39:05.412Z,98177.42
2022-12-23T14:41:52.068Z,98182.88
2022-12-23T14:44:45.855Z,98186.36
2022-12-23T14:47:40.637Z,98184.78
2022-12-23T14:50:39.968Z,98181.94
2022-12-23T14:53:25.424Z,98180.34
2022-12-23T14:56:21.854Z,98175.65
2022-12-23T14:59:15.568Z,98172.94
2022-12-23T15:01:51.435Z,98165.91
2022-12-23T15:04:26.119Z,98155.95
2022-12-23T15:07:00.996Z,98149.02
2022-12-23T15:09:36.425Z,98150.58
2022-12-23T15:12:15.927Z,98153.20
2022-12-23T15:14:52.012Z,98148.55
2022-12-23T15:17:29.523Z,98146.09
2022-12-23T15:20:13.993Z,98149.05
2022-12-23T15:22:46.592Z,98147.39
2022-12-23T15:25:26.217Z,98148.09
2022-12-23T15:28:01.947Z,98153.31
2022-12-23T15:30:35.582Z,98156.70
2022-12-23T15:33:28.243Z,98160.15
2022-12-23T15:36:05.922Z,98163.23
2022-12-23T15:38:39.999Z,98161.97
2022-12-23T15:41:18.761Z,98164.19
2022-12-23T15:43:49.764Z,98166.23
2022-12-23T15:46:28.993Z,98160.85
2022-12-23T15:49:01.573Z,98159.55
2022-12-23T15:52:05.861Z,98160.27
2022-12-23T15:54:32.218Z,98156.00
2022-12-23T15:57:04.794Z,98151.45
2022-12-23T15:59:38.460Z,98151.80
2022-12-23T16:02:58.499Z,98151.38
2022-12-23T16:05:09.381Z,98152.21
2022-12-23T16:07:42.234Z,98148.17
2022-12-23T16:10:20.603Z,98146.46
2022-12-23T16:12:53.222Z,98139.99
2022-12-23T16:15:29.155Z,98138.13
2022-12-23T16:18:21.282Z,98135.75
2022-12-23T16:20:54.901Z,98143.63
2022-12-23T16:23:30.299Z,98144.44
2022-12-23T16:26:02.878Z,98155.09
2022-12-23T16:28:41.041Z,98150.23
2022-12-23T16:31:15.864Z,98128.27
2022-12-23T16:33:50.157Z,98142.30
2022-12-23T16:36:33.551Z,98153.55
2022-12-23T16:39:15.281Z,98161.21
2022-12-23T16:41:46.260Z,98159.93
2022-12-23T16:44:17.250Z,98135.48
2022-12-23T16:46:50.915Z,98155.80
2022-12-23T16:49:21.403Z,98166.86
2022-12-23T16:51:52.310Z,98162.05
2022-12-23T16:54:23.699Z,98169.86
2022-12-23T16:56:54.771Z,98169.17
2022-12-23T16:59:26.123Z,98165.48
2022-12-23T17:02:03.078Z,98166.20
2022-12-23T17:04:34.605Z,98164.35
2022-12-23T17:07:10.639Z,98160.25
2022-12-23T17:09:41.465Z,98162.07
2022-12-23T17:12:13.023Z,98159.05
2022-12-23T17:14:43.869Z,98157.44
2022-12-23T17:17:17.480Z,98156.79
2022-12-23T17:19:48.356Z,98157.96
2022-12-23T17:22:19.987Z,98154.63
2022-12-23T17:24:50.868Z,98150.80
2022-12-23T17:27:22.311Z,98137.27
2022-12-23T17:29:53.816Z,98135.48
2022-12-23T17:32:25.400Z,98133.44
2022-12-23T17:34:57.106Z,98128.33
2022-12-23T17:37:31.211Z,98126.56
2022-12-23T17:40:02.197Z,98118.06
2022-12-23T17:42:33.995Z,98118.15
2022-12-23T17:45:05.535Z,98118.05
2022-12-23T17:47:36.451Z,98121.20
2022-12-23T17:50:09.156Z,98117.91
2022-12-23T17:52:40.227Z,98118.39
2022-12-23T17:55:20.042Z,98118.39
2022-12-23T17:57:51.763Z,98123.63
2022-12-23T18:00:31.894Z,98122.31
2022-12-23T18:03:07.283Z,98131.49
2022-12-23T18:05:38.754Z,98131.31
2022-12-23T18:08:10.746Z,98130.52
2022-12-23T18:10:42.870Z,98127.10
2022-12-23T18:13:18.446Z,98115.30
2022-12-23T18:15:49.474Z,98123.42
2022-12-23T18:18:30.201Z,98129.85
2022-12-23T18:21:08.027Z,98117.20
2022-12-23T18:23:39.804Z,98123.36
2022-12-23T18:26:15.175Z,98123.61
2022-12-23T18:28:46.616Z,98123.02
2022-12-23T18:31:21.345Z,98128.83
2022-12-23T18:33:53.070Z,98126.39
2022-12-23T18:36:27.226Z,98134.64
2022-12-23T18:38:59.177Z,98135.39
2022-12-23T18:41:30.450Z,98134.27
2022-12-23T18:44:01.859Z,98132.08
2022-12-23T18:46:33.196Z,98130.41
2022-12-23T18:49:04.460Z,98124.38
2022-12-23T18:51:35.710Z,98122.61
2022-12-23T18:54:07.174Z,98111.34
2022-12-23T18:56:38.113Z,98104.50
2022-12-23T18:59:10.885Z,98102.49
2022-12-23T19:01:41.775Z,98099.68
2022-12-23T19:04:13.190Z,98095.34
2022-12-23T19:06:44.964Z,98093.59
2022-12-23T19:09:20.320Z,98081.15
2022-12-23T19:11:52.961Z,98081.71
2022-12-23T19:14:24.189Z,98069.36
2022-12-23T19:16:55.195Z,98066.42
2022-12-23T19:19:26.009Z,98063.50
2022-12-23T19:21:57.158Z,98061.42
2022-12-23T19:24:28.834Z,98059.73
2022-12-23T19:26:59.873Z,98065.85
2022-12-23T19:29:31.643Z,98054.92
2022-12-23T19:32:02.674Z,98042.50
2022-12-23T19:34:33.679Z,98032.66
2022-12-23T19:37:20.645Z,98039.54
2022-12-23T19:39:52.221Z,98039.00
2022-12-23T19:42:23.329Z,98041.84
2022-12-23T19:44:54.203Z,98044.67
2022-12-23T19:47:25.407Z,98043.62
2022-12-23T19:49:56.965Z,98042.64
2022-12-23T19:52:28.049Z,98046.20
2022-12-23T19:54:58.958Z,98043.19
2022-12-23T19:57:30.286Z,98044.77
2022-12-23T20:00:02.392Z,98044.61
2022-12-23T20:02:33.685Z,98041.22
2022-12-23T20:05:05.287Z,98038.58
2022-12-23T20:07:38.896Z,98026.64
2022-12-23T20:10:11.035Z,98028.84
2022-12-23T20:12:42.419Z,98036.07
2022-12-23T20:15:16.837Z,98036.09
2022-12-23T20:17:47.872Z,98033.95
2022-12-23T20:20:19.227Z,98027.06
2022-12-23T20:22:50.276Z,98009.81
2022-12-23T20:25:21.497Z,97998.23
2022-12-23T20:27:53.428Z,97995.90
2022-12-23T20:30:24.946Z,97992.13
2022-12-23T20:32:57.589Z,97980.31
2022-12-23T20:35:28.826Z,97976.45
2022-12-23T20:38:00.095Z,97975.96
2022-12-23T20:40:31.740Z,97972.42
2022-12-23T20:43:04.139Z,97962.20
2022-12-23T20:45:36.707Z,97970.30
2022-12-23T20:48:15.579Z,97976.65
2022-12-23T20:50:47.694Z,97977.95
2022-12-23T20:53:19.188Z,97977.52
2022-12-23T20:55:51.075Z,97977.26
2022-12-23T20:58:40.008Z,97969.13
2022-12-23T21:01:14.971Z,97968.41
2022-12-23T21:03:46.454Z,97959.77
2022-12-23T21:06:20.705Z,97962.02
2022-12-23T21:08:52.384Z,97960.84
2022-12-23T21:11:24.410Z,97956.30
2022-12-23T21:13:58.687Z,97956.58
2022-12-23T21:16:36.864Z,97963.52
2022-12-23T21:19:10.063Z,97969.73
2022-12-23T21:21:41.281Z,97975.45
2022-12-23T21:24:13.905Z,97977.79
2022-12-23T21:26:49.001Z,97980.56
2022-12-23T21:29:24.475Z,97978.05
2022-12-23T21:31:56.136Z,97990.30
2022-12-23T21:34:27.286Z,97988.59
2022-12-23T21:36:58.877Z,97986.95
2022-12-23T21:39:30.648Z,97971.30
2022-12-23T21:42:01.677Z,97956.19
2022-12-23T21:44:33.267Z,97953.59
2022-12-23T21:47:04.195Z,97942.14
2022-12-23T21:49:35.310Z,97937.32
2022-12-23T21:52:06.819Z,97941.60
2022-12-23T21:54:37.643Z,97933.21
2022-12-23T21:57:08.524Z,97922.09
2022-12-23T21:59:39.602Z,97897.78
2022-12-23T22:02:12.930Z,97893.44
2022-12-23T22:04:44.112Z,97879.98
2022-12-23T22:07:14.978Z,97869.94
2022-12-23T22:09:46.010Z,97867.63
2022-12-23T22:12:16.880Z,97870.52
2022-12-23T22:14:48.190Z,97866.65
2022-12-23T22:17:19.036Z,97866.03
2022-12-23T22:19:50.085Z,97870.50
2022-12-23T22:22:21.118Z,97866.39
2022-12-23T22:24:51.909Z,97872.98
2022-12-23T22:27:22.788Z,97871.53
2022-12-23T22:29:54.361Z,97873.67
2022-12-23T22:32:25.331Z,97871.98
2022-12-23T22:34:56.311Z,97864.34
2022-12-23T22:37:27.300Z,97866.48
2022-12-23T22:39:58.232Z,97866.80
2022-12-23T22:42:31.331Z,97865.05
2022-12-23T22:45:02.194Z,97864.40
2022-12-23T22:47:33.280Z,97843.59
2022-12-23T22:50:04.202Z,97855.96
2022-12-23T22:52:34.991Z,97865.05
2022-12-23T22:55:06.573Z,97866.83
2022-12-23T22:57:37.540Z,97866.79
2022-12-23T23:00:12.448Z,97868.94
2022-12-23T23:02:43.780Z,97865.30
2022-12-23T23:05:14.556Z,97860.65
2022-12-23T23:07:45.495Z,97852.66
2022-12-23T23:10:16.892Z,97857.31
2022-12-23T23:12:47.753Z,97859.80
2022-12-23T23:15:18.800Z,97854.39
2022-12-23T23:17:49.537Z,97855.48
2022-12-23T23:20:20.511Z,97860.02
2022-12-23T23:22:52.163Z,97862.33
2022-12-23T23:25:23.846Z,97872.70
2022-12-23T23:27:54.542Z,97877.63
2022-12-23T23:30:25.599Z,97877.99
2022-12-23T23:32:56.316Z,97890.23
2022-12-23T23:35:27.061Z,97898.05
2022-12-23T23:37:57.905Z,97900.77
2022-12-23T23:40:28.673Z,97904.40
2022-12-23T23:42:59.414Z,97914.24
2022-12-23T23:45:30.384Z,97918.12
2022-12-23T23:48:01.175Z,97935.75
2022-12-23T23:50:31.923Z,97936.41
2022-12-23T23:53:02.629Z,97940.34
2022-12-23T23:55:33.891Z,97941.05
2022-12-23T23:58:05.643Z,97944.77
